Aérodrome :







RETROUVEZ-NOUS SUR...

 
LOGIN :

S'inscrire | Disclaimer

   EN    FR    IT 

 









Légende :    VFR   VFR Marginal   IFR   IFR Intensif   IFR Très Intensif
Visi : 
Plafond : 
>= 8 km
>= 3000ft
5 à 8 km
1000 à 3000 ft
1500m à 5 km
500 à 1000 ft
800 à 1500m
200 à 500 ft
< 800m
< 200 ft
Symboles :   Orages  Brouillard  Fortes neiges  Fortes précipitations  Vent > 20 kt







- Altitude de l'aérodrome : 172 ft
- Code IATA : YYY


CYYY - Mont Joli

DERNIER METAR :
  • 251200Z 22005KT 160V250 30SM SKC 16/07 A3040 RMK SLP296

METARs EXPIRÉS :
  • 251100Z 17003KT 30SM SKC 13/07 A3039 RMK SLP292

TAF TAF CYYY
Valide du 25 à 08h jusqu'au 25 à 20h UTC


250738Z 2508/2520 17005KT P6SM SKC
PROB30 2508/2511 2SM BR
FM251600 24005KT P6SM SKC RMK NXT FCST BY 251400Z
Pas de NOTAMs connus pour ce terrain.



MET'MAP, la Météo Aéronautique d'un coup d'oeil ! - Copyright ORBIFLY Décembre 2007 - Disclaimer

ORBIFLY MET'MAP TEAM :

Programmation & Développement : Alexandra Zaïnal
Conception & Développement : Baudouin d'Aumeries
Co-Programmation & Développement : Marc-Olivier Méhu
Soutien technique & logistique : Manuel Goepfert

Contact : metmap@orbifly.com




SOURCES & CREDITS :

   NOAA